sensor_id;sensor_type;location;lat;lon;timestamp;P1;durP1;ratioP1;P2;durP2;ratioP2
13795;SDS011;40911;51.552;9.874;2023-08-31T00:01:37;8.63;;;5.40;;
13795;SDS011;40911;51.552;9.874;2023-08-31T00:03:58;9.98;;;4.97;;
13795;SDS011;40911;51.552;9.874;2023-08-31T00:06:20;9.27;;;5.22;;
13795;SDS011;40911;51.552;9.874;2023-08-31T00:08:43;7.35;;;5.18;;
13795;SDS011;40911;51.552;9.874;2023-08-31T00:11:05;7.28;;;5.25;;
13795;SDS011;40911;51.552;9.874;2023-08-31T00:15:48;6.25;;;4.85;;
13795;SDS011;40911;51.552;9.874;2023-08-31T00:20:33;6.18;;;4.95;;
13795;SDS011;40911;51.552;9.874;2023-08-31T00:22:54;6.87;;;5.20;;
13795;SDS011;40911;51.552;9.874;2023-08-31T00:27:37;6.55;;;4.88;;
13795;SDS011;40911;51.552;9.874;2023-08-31T00:30:00;8.77;;;5.43;;
13795;SDS011;40911;51.552;9.874;2023-08-31T00:34:45;7.78;;;5.47;;
13795;SDS011;40911;51.552;9.874;2023-08-31T00:37:07;7.28;;;5.22;;
13795;SDS011;40911;51.552;9.874;2023-08-31T00:41:53;8.10;;;5.20;;
13795;SDS011;40911;51.552;9.874;2023-08-31T00:44:16;7.50;;;5.90;;
13795;SDS011;40911;51.552;9.874;2023-08-31T00:46:37;7.95;;;5.70;;
13795;SDS011;40911;51.552;9.874;2023-08-31T00:49:00;8.50;;;5.55;;
13795;SDS011;40911;51.552;9.874;2023-08-31T00:51:25;7.55;;;6.03;;
13795;SDS011;40911;51.552;9.874;2023-08-31T00:53:47;7.47;;;5.32;;
13795;SDS011;40911;51.552;9.874;2023-08-31T00:56:09;10.60;;;6.03;;
13795;SDS011;40911;51.552;9.874;2023-08-31T00:58:32;8.52;;;5.68;;
13795;SDS011;40911;51.552;9.874;2023-08-31T01:03:20;8.95;;;5.57;;
13795;SDS011;40911;51.552;9.874;2023-08-31T01:05:53;7.85;;;5.90;;
13795;SDS011;40911;51.552;9.874;2023-08-31T01:08:27;8.80;;;5.45;;
13795;SDS011;40911;51.552;9.874;2023-08-31T01:13:21;5.95;;;4.90;;
13795;SDS011;40911;51.552;9.874;2023-08-31T01:15:46;11.75;;;6.03;;
13795;SDS011;40911;51.552;9.874;2023-08-31T01:18:13;10.70;;;5.45;;
13795;SDS011;40911;51.552;9.874;2023-08-31T01:20:38;7.28;;;5.57;;
13795;SDS011;40911;51.552;9.874;2023-08-31T01:23:09;9.25;;;6.10;;
13795;SDS011;40911;51.552;9.874;2023-08-31T01:25:34;6.93;;;5.25;;
13795;SDS011;40911;51.552;9.874;2023-08-31T01:27:56;13.82;;;6.38;;
13795;SDS011;40911;51.552;9.874;2023-08-31T01:30:17;10.95;;;5.57;;
13795;SDS011;40911;51.552;9.874;2023-08-31T01:35:05;6.43;;;5.28;;
13795;SDS011;40911;51.552;9.874;2023-08-31T01:37:29;6.20;;;5.57;;
13795;SDS011;40911;51.552;9.874;2023-08-31T01:40:09;6.93;;;5.32;;
13795;SDS011;40911;51.552;9.874;2023-08-31T01:42:36;7.78;;;5.90;;
13795;SDS011;40911;51.552;9.874;2023-08-31T01:44:59;8.05;;;5.72;;
13795;SDS011;40911;51.552;9.874;2023-08-31T01:47:23;6.78;;;5.55;;
13795;SDS011;40911;51.552;9.874;2023-08-31T01:49:45;6.32;;;5.65;;
13795;SDS011;40911;51.552;9.874;2023-08-31T01:54:28;7.85;;;6.00;;
13795;SDS011;40911;51.552;9.874;2023-08-31T01:59:13;8.00;;;6.07;;
13795;SDS011;40911;51.552;9.874;2023-08-31T02:01:35;8.23;;;6.15;;
13795;SDS011;40911;51.552;9.874;2023-08-31T02:03:56;8.43;;;6.55;;
13795;SDS011;40911;51.552;9.874;2023-08-31T02:08:40;11.43;;;6.68;;
13795;SDS011;40911;51.552;9.874;2023-08-31T02:11:03;11.45;;;6.90;;
13795;SDS011;40911;51.552;9.874;2023-08-31T02:13:25;13.25;;;7.07;;
13795;SDS011;40911;51.552;9.874;2023-08-31T02:18:12;9.27;;;6.75;;
13795;SDS011;40911;51.552;9.874;2023-08-31T02:20:33;9.35;;;6.32;;
13795;SDS011;40911;51.552;9.874;2023-08-31T02:25:17;12.52;;;6.78;;
13795;SDS011;40911;51.552;9.874;2023-08-31T02:27:38;11.95;;;6.90;;
13795;SDS011;40911;51.552;9.874;2023-08-31T02:30:00;9.10;;;6.78;;
13795;SDS011;40911;51.552;9.874;2023-08-31T02:32:26;11.52;;;7.35;;
13795;SDS011;40911;51.552;9.874;2023-08-31T02:34:47;12.75;;;7.47;;
13795;SDS011;40911;51.552;9.874;2023-08-31T02:37:09;11.60;;;6.72;;
13795;SDS011;40911;51.552;9.874;2023-08-31T02:39:31;9.13;;;7.03;;
13795;SDS011;40911;51.552;9.874;2023-08-31T02:41:53;9.57;;;7.00;;
13795;SDS011;40911;51.552;9.874;2023-08-31T02:44:14;10.23;;;6.60;;
13795;SDS011;40911;51.552;9.874;2023-08-31T02:51:21;13.73;;;6.55;;
13795;SDS011;40911;51.552;9.874;2023-08-31T02:56:04;8.05;;;6.43;;
13795;SDS011;40911;51.552;9.874;2023-08-31T02:58:26;15.32;;;7.35;;
13795;SDS011;40911;51.552;9.874;2023-08-31T03:03:09;10.02;;;7.30;;
13795;SDS011;40911;51.552;9.874;2023-08-31T03:05:32;8.88;;;6.72;;
13795;SDS011;40911;51.552;9.874;2023-08-31T03:07:54;12.18;;;7.90;;
13795;SDS011;40911;51.552;9.874;2023-08-31T03:10:17;11.43;;;7.60;;
13795;SDS011;40911;51.552;9.874;2023-08-31T03:15:00;12.77;;;7.78;;
13795;SDS011;40911;51.552;9.874;2023-08-31T03:17:21;13.93;;;8.93;;
13795;SDS011;40911;51.552;9.874;2023-08-31T03:19:43;13.85;;;8.38;;
13795;SDS011;40911;51.552;9.874;2023-08-31T03:22:06;11.20;;;8.27;;
13795;SDS011;40911;51.552;9.874;2023-08-31T03:24:28;16.50;;;9.55;;
13795;SDS011;40911;51.552;9.874;2023-08-31T03:26:50;14.27;;;8.65;;
13795;SDS011;40911;51.552;9.874;2023-08-31T03:31:33;11.27;;;7.63;;
13795;SDS011;40911;51.552;9.874;2023-08-31T03:33:54;11.95;;;8.13;;
13795;SDS011;40911;51.552;9.874;2023-08-31T03:36:16;13.15;;;8.82;;
13795;SDS011;40911;51.552;9.874;2023-08-31T03:38:39;12.45;;;8.35;;
13795;SDS011;40911;51.552;9.874;2023-08-31T03:41:01;14.13;;;8.05;;
13795;SDS011;40911;51.552;9.874;2023-08-31T03:43:23;13.27;;;7.43;;
13795;SDS011;40911;51.552;9.874;2023-08-31T03:45:44;11.40;;;8.43;;
13795;SDS011;40911;51.552;9.874;2023-08-31T03:48:06;15.50;;;9.63;;
13795;SDS011;40911;51.552;9.874;2023-08-31T03:50:28;13.25;;;8.98;;
13795;SDS011;40911;51.552;9.874;2023-08-31T03:57:34;19.88;;;8.68;;
13795;SDS011;40911;51.552;9.874;2023-08-31T03:59:56;11.73;;;8.25;;
13795;SDS011;40911;51.552;9.874;2023-08-31T04:02:18;10.95;;;7.82;;
13795;SDS011;40911;51.552;9.874;2023-08-31T04:04:39;13.98;;;8.57;;
13795;SDS011;40911;51.552;9.874;2023-08-31T04:11:46;11.73;;;8.38;;
13795;SDS011;40911;51.552;9.874;2023-08-31T04:14:08;13.40;;;8.23;;
13795;SDS011;40911;51.552;9.874;2023-08-31T04:16:29;13.70;;;7.65;;
13795;SDS011;40911;51.552;9.874;2023-08-31T04:18:51;11.45;;;8.45;;
13795;SDS011;40911;51.552;9.874;2023-08-31T04:21:13;10.20;;;8.43;;
13795;SDS011;40911;51.552;9.874;2023-08-31T04:23:34;15.68;;;8.73;;
13795;SDS011;40911;51.552;9.874;2023-08-31T04:28:19;13.23;;;8.68;;
13795;SDS011;40911;51.552;9.874;2023-08-31T04:30:41;12.02;;;8.73;;
13795;SDS011;40911;51.552;9.874;2023-08-31T04:33:03;14.45;;;9.27;;
13795;SDS011;40911;51.552;9.874;2023-08-31T04:35:26;13.70;;;9.02;;
13795;SDS011;40911;51.552;9.874;2023-08-31T04:40:09;13.27;;;8.93;;
13795;SDS011;40911;51.552;9.874;2023-08-31T04:42:32;14.15;;;9.30;;
13795;SDS011;40911;51.552;9.874;2023-08-31T04:47:17;11.48;;;8.02;;
13795;SDS011;40911;51.552;9.874;2023-08-31T04:49:38;18.38;;;9.43;;
13795;SDS011;40911;51.552;9.874;2023-08-31T04:52:00;13.68;;;8.75;;
13795;SDS011;40911;51.552;9.874;2023-08-31T04:54:22;12.00;;;8.70;;
13795;SDS011;40911;51.552;9.874;2023-08-31T04:59:05;11.75;;;8.40;;
13795;SDS011;40911;51.552;9.874;2023-08-31T05:03:50;12.23;;;8.65;;
13795;SDS011;40911;51.552;9.874;2023-08-31T05:06:12;12.93;;;9.55;;
13795;SDS011;40911;51.552;9.874;2023-08-31T05:08:33;13.57;;;9.02;;
13795;SDS011;40911;51.552;9.874;2023-08-31T05:10:55;14.02;;;9.10;;
13795;SDS011;40911;51.552;9.874;2023-08-31T05:13:17;11.57;;;8.70;;
13795;SDS011;40911;51.552;9.874;2023-08-31T05:15:38;13.15;;;9.63;;
13795;SDS011;40911;51.552;9.874;2023-08-31T05:18:01;10.43;;;8.85;;
13795;SDS011;40911;51.552;9.874;2023-08-31T05:20:23;12.73;;;9.38;;
13795;SDS011;40911;51.552;9.874;2023-08-31T05:22:45;12.38;;;9.27;;
13795;SDS011;40911;51.552;9.874;2023-08-31T05:25:07;15.40;;;8.55;;
13795;SDS011;40911;51.552;9.874;2023-08-31T05:27:29;13.77;;;8.75;;
13795;SDS011;40911;51.552;9.874;2023-08-31T05:29:51;11.70;;;8.93;;
13795;SDS011;40911;51.552;9.874;2023-08-31T05:32:12;11.75;;;8.68;;
13795;SDS011;40911;51.552;9.874;2023-08-31T05:36:59;13.75;;;8.85;;
13795;SDS011;40911;51.552;9.874;2023-08-31T05:39:21;12.95;;;8.27;;
13795;SDS011;40911;51.552;9.874;2023-08-31T05:41:43;11.60;;;8.98;;
13795;SDS011;40911;51.552;9.874;2023-08-31T05:46:26;10.50;;;8.18;;
13795;SDS011;40911;51.552;9.874;2023-08-31T05:48:48;8.75;;;7.55;;
13795;SDS011;40911;51.552;9.874;2023-08-31T05:51:11;12.50;;;7.60;;
13795;SDS011;40911;51.552;9.874;2023-08-31T05:53:33;10.05;;;7.68;;
13795;SDS011;40911;51.552;9.874;2023-08-31T05:55:55;9.60;;;7.45;;
13795;SDS011;40911;51.552;9.874;2023-08-31T05:58:23;10.02;;;7.43;;
13795;SDS011;40911;51.552;9.874;2023-08-31T06:00:45;13.25;;;8.43;;
13795;SDS011;40911;51.552;9.874;2023-08-31T06:07:53;10.23;;;7.88;;
13795;SDS011;40911;51.552;9.874;2023-08-31T06:10:14;13.95;;;8.25;;
13795;SDS011;40911;51.552;9.874;2023-08-31T06:12:36;12.88;;;8.43;;
13795;SDS011;40911;51.552;9.874;2023-08-31T06:17:20;12.45;;;8.60;;
13795;SDS011;40911;51.552;9.874;2023-08-31T06:22:04;10.88;;;8.15;;
13795;SDS011;40911;51.552;9.874;2023-08-31T06:24:27;11.32;;;8.68;;
13795;SDS011;40911;51.552;9.874;2023-08-31T06:26:49;9.57;;;7.93;;
13795;SDS011;40911;51.552;9.874;2023-08-31T06:29:12;12.95;;;8.95;;
13795;SDS011;40911;51.552;9.874;2023-08-31T06:31:34;16.42;;;9.05;;
13795;SDS011;40911;51.552;9.874;2023-08-31T06:33:56;12.13;;;8.73;;
13795;SDS011;40911;51.552;9.874;2023-08-31T06:36:23;11.52;;;8.80;;
13795;SDS011;40911;51.552;9.874;2023-08-31T06:38:45;10.88;;;8.18;;
13795;SDS011;40911;51.552;9.874;2023-08-31T06:41:09;9.50;;;7.70;;
13795;SDS011;40911;51.552;9.874;2023-08-31T06:43:31;11.68;;;7.72;;
13795;SDS011;40911;51.552;9.874;2023-08-31T06:48:14;9.80;;;7.63;;
13795;SDS011;40911;51.552;9.874;2023-08-31T06:52:57;10.32;;;8.35;;
13795;SDS011;40911;51.552;9.874;2023-08-31T06:55:19;10.95;;;7.32;;
13795;SDS011;40911;51.552;9.874;2023-08-31T07:00:04;8.00;;;6.75;;
13795;SDS011;40911;51.552;9.874;2023-08-31T07:02:28;7.78;;;6.97;;
13795;SDS011;40911;51.552;9.874;2023-08-31T07:07:12;8.73;;;6.82;;
13795;SDS011;40911;51.552;9.874;2023-08-31T07:09:34;9.25;;;6.38;;
13795;SDS011;40911;51.552;9.874;2023-08-31T07:11:56;8.27;;;6.75;;
13795;SDS011;40911;51.552;9.874;2023-08-31T07:14:20;7.80;;;6.35;;
13795;SDS011;40911;51.552;9.874;2023-08-31T07:16:42;10.10;;;6.75;;
13795;SDS011;40911;51.552;9.874;2023-08-31T07:19:03;9.95;;;6.15;;
13795;SDS011;40911;51.552;9.874;2023-08-31T07:21:25;8.60;;;6.13;;
13795;SDS011;40911;51.552;9.874;2023-08-31T07:23:47;9.35;;;6.30;;
13795;SDS011;40911;51.552;9.874;2023-08-31T07:26:09;6.43;;;5.82;;
13795;SDS011;40911;51.552;9.874;2023-08-31T07:31:01;6.43;;;5.53;;
13795;SDS011;40911;51.552;9.874;2023-08-31T07:35:46;9.90;;;5.03;;
13795;SDS011;40911;51.552;9.874;2023-08-31T07:38:08;8.02;;;5.30;;
13795;SDS011;40911;51.552;9.874;2023-08-31T07:40:30;6.03;;;4.70;;
13795;SDS011;40911;51.552;9.874;2023-08-31T07:42:51;7.90;;;4.82;;
13795;SDS011;40911;51.552;9.874;2023-08-31T07:45:13;5.55;;;4.38;;
13795;SDS011;40911;51.552;9.874;2023-08-31T07:49:58;5.15;;;4.55;;
13795;SDS011;40911;51.552;9.874;2023-08-31T07:52:20;5.50;;;4.28;;
13795;SDS011;40911;51.552;9.874;2023-08-31T07:54:42;5.90;;;4.68;;
13795;SDS011;40911;51.552;9.874;2023-08-31T07:57:04;4.82;;;3.70;;
13795;SDS011;40911;51.552;9.874;2023-08-31T07:59:26;4.65;;;3.50;;
13795;SDS011;40911;51.552;9.874;2023-08-31T08:01:48;5.00;;;3.65;;
13795;SDS011;40911;51.552;9.874;2023-08-31T08:04:11;4.38;;;3.63;;
13795;SDS011;40911;51.552;9.874;2023-08-31T08:06:38;4.65;;;3.40;;
13795;SDS011;40911;51.552;9.874;2023-08-31T08:09:00;6.05;;;3.83;;
13795;SDS011;40911;51.552;9.874;2023-08-31T08:13:43;5.03;;;3.55;;
13795;SDS011;40911;51.552;9.874;2023-08-31T08:16:05;4.13;;;2.90;;
13795;SDS011;40911;51.552;9.874;2023-08-31T08:18:28;4.90;;;3.10;;
13795;SDS011;40911;51.552;9.874;2023-08-31T08:20:53;4.57;;;2.75;;
13795;SDS011;40911;51.552;9.874;2023-08-31T08:23:14;3.88;;;2.45;;
13795;SDS011;40911;51.552;9.874;2023-08-31T08:25:36;3.30;;;2.20;;
13795;SDS011;40911;51.552;9.874;2023-08-31T08:30:20;3.17;;;2.05;;
13795;SDS011;40911;51.552;9.874;2023-08-31T08:32:41;2.30;;;2.10;;
13795;SDS011;40911;51.552;9.874;2023-08-31T08:35:04;1.98;;;1.80;;
13795;SDS011;40911;51.552;9.874;2023-08-31T08:37:27;2.70;;;2.13;;
13795;SDS011;40911;51.552;9.874;2023-08-31T08:39:49;2.28;;;2.00;;
13795;SDS011;40911;51.552;9.874;2023-08-31T08:42:11;2.80;;;2.08;;
13795;SDS011;40911;51.552;9.874;2023-08-31T08:44:35;2.42;;;2.20;;
13795;SDS011;40911;51.552;9.874;2023-08-31T08:47:00;4.28;;;2.00;;
13795;SDS011;40911;51.552;9.874;2023-08-31T08:49:22;2.45;;;1.85;;
13795;SDS011;40911;51.552;9.874;2023-08-31T08:51:44;2.13;;;1.92;;
13795;SDS011;40911;51.552;9.874;2023-08-31T08:54:08;2.85;;;1.90;;
13795;SDS011;40911;51.552;9.874;2023-08-31T08:56:30;2.08;;;1.67;;
13795;SDS011;40911;51.552;9.874;2023-08-31T08:58:52;2.17;;;1.73;;
13795;SDS011;40911;51.552;9.874;2023-08-31T09:03:38;1.95;;;1.70;;
13795;SDS011;40911;51.552;9.874;2023-08-31T09:06:00;3.38;;;1.95;;
13795;SDS011;40911;51.552;9.874;2023-08-31T09:08:25;4.13;;;2.10;;
13795;SDS011;40911;51.552;9.874;2023-08-31T09:10:49;1.50;;;1.40;;
13795;SDS011;40911;51.552;9.874;2023-08-31T09:13:11;6.90;;;1.95;;
13795;SDS011;40911;51.552;9.874;2023-08-31T09:15:36;2.90;;;1.60;;
13795;SDS011;40911;51.552;9.874;2023-08-31T09:17:59;2.17;;;1.48;;
13795;SDS011;40911;51.552;9.874;2023-08-31T09:20:21;2.88;;;1.60;;
13795;SDS011;40911;51.552;9.874;2023-08-31T09:22:49;1.80;;;1.60;;
13795;SDS011;40911;51.552;9.874;2023-08-31T09:25:18;2.78;;;1.70;;
13795;SDS011;40911;51.552;9.874;2023-08-31T09:27:42;1.90;;;1.52;;
13795;SDS011;40911;51.552;9.874;2023-08-31T09:30:05;3.47;;;1.80;;
13795;SDS011;40911;51.552;9.874;2023-08-31T09:32:28;9.30;;;1.80;;
13795;SDS011;40911;51.552;9.874;2023-08-31T09:34:50;3.88;;;1.60;;
13795;SDS011;40911;51.552;9.874;2023-08-31T09:37:17;2.72;;;1.58;;
13795;SDS011;40911;51.552;9.874;2023-08-31T09:39:38;1.67;;;1.40;;
13795;SDS011;40911;51.552;9.874;2023-08-31T09:42:00;2.17;;;1.63;;
13795;SDS011;40911;51.552;9.874;2023-08-31T09:47:18;2.53;;;1.80;;
13795;SDS011;40911;51.552;9.874;2023-08-31T09:50:49;2.78;;;1.48;;
13795;SDS011;40911;51.552;9.874;2023-08-31T09:53:12;1.95;;;1.58;;
13795;SDS011;40911;51.552;9.874;2023-08-31T09:55:56;1.98;;;1.77;;
13795;SDS011;40911;51.552;9.874;2023-08-31T09:58:19;1.63;;;1.50;;
13795;SDS011;40911;51.552;9.874;2023-08-31T10:00:43;1.75;;;1.50;;
13795;SDS011;40911;51.552;9.874;2023-08-31T10:03:06;2.50;;;1.60;;
13795;SDS011;40911;51.552;9.874;2023-08-31T10:05:29;2.42;;;1.42;;
13795;SDS011;40911;51.552;9.874;2023-08-31T10:07:52;2.75;;;1.42;;
13795;SDS011;40911;51.552;9.874;2023-08-31T10:10:15;4.10;;;1.52;;
13795;SDS011;40911;51.552;9.874;2023-08-31T10:12:37;3.28;;;1.30;;
13795;SDS011;40911;51.552;9.874;2023-08-31T10:15:13;2.67;;;1.50;;
13795;SDS011;40911;51.552;9.874;2023-08-31T10:17:52;3.38;;;1.50;;
13795;SDS011;40911;51.552;9.874;2023-08-31T10:20:15;2.90;;;1.50;;
13795;SDS011;40911;51.552;9.874;2023-08-31T10:22:38;2.60;;;1.55;;
13795;SDS011;40911;51.552;9.874;2023-08-31T10:25:10;3.13;;;1.45;;
13795;SDS011;40911;51.552;9.874;2023-08-31T10:37:29;2.65;;;1.40;;
13795;SDS011;40911;51.552;9.874;2023-08-31T10:39:50;2.72;;;1.70;;
13795;SDS011;40911;51.552;9.874;2023-08-31T10:42:30;5.45;;;1.25;;
13795;SDS011;40911;51.552;9.874;2023-08-31T10:48:48;2.80;;;1.45;;
13795;SDS011;40911;51.552;9.874;2023-08-31T10:51:15;3.22;;;1.40;;
13795;SDS011;40911;51.552;9.874;2023-08-31T10:53:39;2.88;;;1.67;;
13795;SDS011;40911;51.552;9.874;2023-08-31T10:56:11;3.00;;;1.50;;
13795;SDS011;40911;51.552;9.874;2023-08-31T10:58:33;4.97;;;1.50;;
13795;SDS011;40911;51.552;9.874;2023-08-31T11:00:55;2.38;;;1.60;;
13795;SDS011;40911;51.552;9.874;2023-08-31T11:03:17;2.85;;;1.60;;
13795;SDS011;40911;51.552;9.874;2023-08-31T11:08:11;3.83;;;1.98;;
13795;SDS011;40911;51.552;9.874;2023-08-31T11:12:56;2.85;;;1.83;;
13795;SDS011;40911;51.552;9.874;2023-08-31T11:15:21;3.10;;;1.80;;
13795;SDS011;40911;51.552;9.874;2023-08-31T11:17:46;2.58;;;1.77;;
13795;SDS011;40911;51.552;9.874;2023-08-31T11:20:08;2.75;;;1.60;;
13795;SDS011;40911;51.552;9.874;2023-08-31T11:22:34;3.10;;;1.60;;
13795;SDS011;40911;51.552;9.874;2023-08-31T11:24:59;1.83;;;1.40;;
13795;SDS011;40911;51.552;9.874;2023-08-31T11:27:22;2.33;;;1.20;;
13795;SDS011;40911;51.552;9.874;2023-08-31T11:29:44;1.30;;;1.30;;
13795;SDS011;40911;51.552;9.874;2023-08-31T11:32:06;1.55;;;1.30;;
13795;SDS011;40911;51.552;9.874;2023-08-31T11:34:28;1.45;;;1.35;;
13795;SDS011;40911;51.552;9.874;2023-08-31T11:39:11;1.80;;;1.60;;
13795;SDS011;40911;51.552;9.874;2023-08-31T11:41:33;3.05;;;1.58;;
13795;SDS011;40911;51.552;9.874;2023-08-31T11:43:58;3.80;;;1.40;;
13795;SDS011;40911;51.552;9.874;2023-08-31T11:46:20;2.45;;;1.88;;
13795;SDS011;40911;51.552;9.874;2023-08-31T11:48:42;3.42;;;1.65;;
13795;SDS011;40911;51.552;9.874;2023-08-31T11:51:04;3.58;;;2.72;;
13795;SDS011;40911;51.552;9.874;2023-08-31T11:53:26;1.98;;;1.63;;
13795;SDS011;40911;51.552;9.874;2023-08-31T11:55:49;3.95;;;1.85;;
13795;SDS011;40911;51.552;9.874;2023-08-31T11:58:13;4.45;;;1.73;;
13795;SDS011;40911;51.552;9.874;2023-08-31T12:00:36;9.70;;;3.05;;
13795;SDS011;40911;51.552;9.874;2023-08-31T12:02:58;2.55;;;1.80;;
13795;SDS011;40911;51.552;9.874;2023-08-31T12:05:21;12.07;;;2.58;;
13795;SDS011;40911;51.552;9.874;2023-08-31T12:07:43;2.33;;;1.77;;
13795;SDS011;40911;51.552;9.874;2023-08-31T12:10:05;4.57;;;1.80;;
13795;SDS011;40911;51.552;9.874;2023-08-31T12:12:29;3.22;;;1.67;;
13795;SDS011;40911;51.552;9.874;2023-08-31T12:14:59;2.67;;;1.73;;
13795;SDS011;40911;51.552;9.874;2023-08-31T12:17:25;2.10;;;1.67;;
13795;SDS011;40911;51.552;9.874;2023-08-31T12:19:46;3.67;;;1.63;;
13795;SDS011;40911;51.552;9.874;2023-08-31T12:22:08;2.25;;;1.90;;
13795;SDS011;40911;51.552;9.874;2023-08-31T12:24:41;2.70;;;1.80;;
13795;SDS011;40911;51.552;9.874;2023-08-31T12:27:03;3.10;;;2.50;;
13795;SDS011;40911;51.552;9.874;2023-08-31T12:29:25;2.00;;;1.80;;
13795;SDS011;40911;51.552;9.874;2023-08-31T12:36:32;2.42;;;1.90;;
13795;SDS011;40911;51.552;9.874;2023-08-31T12:38:56;2.75;;;1.70;;
13795;SDS011;40911;51.552;9.874;2023-08-31T12:41:21;1.88;;;1.73;;
13795;SDS011;40911;51.552;9.874;2023-08-31T12:46:04;1.70;;;1.60;;
13795;SDS011;40911;51.552;9.874;2023-08-31T12:48:26;3.67;;;2.10;;
13795;SDS011;40911;51.552;9.874;2023-08-31T12:50:49;3.83;;;2.03;;
13795;SDS011;40911;51.552;9.874;2023-08-31T12:53:13;5.68;;;1.70;;
13795;SDS011;40911;51.552;9.874;2023-08-31T12:55:35;2.80;;;1.75;;
13795;SDS011;40911;51.552;9.874;2023-08-31T12:57:57;4.05;;;1.70;;
13795;SDS011;40911;51.552;9.874;2023-08-31T13:00:19;1.92;;;1.77;;
13795;SDS011;40911;51.552;9.874;2023-08-31T13:02:41;2.13;;;1.50;;
13795;SDS011;40911;51.552;9.874;2023-08-31T13:05:05;2.35;;;1.90;;
13795;SDS011;40911;51.552;9.874;2023-08-31T13:07:29;2.38;;;1.55;;
13795;SDS011;40911;51.552;9.874;2023-08-31T13:09:53;1.70;;;1.60;;
13795;SDS011;40911;51.552;9.874;2023-08-31T13:12:14;1.88;;;1.65;;
13795;SDS011;40911;51.552;9.874;2023-08-31T13:14:37;2.55;;;1.60;;
13795;SDS011;40911;51.552;9.874;2023-08-31T13:16:59;3.58;;;1.70;;
13795;SDS011;40911;51.552;9.874;2023-08-31T13:19:21;2.58;;;2.35;;
13795;SDS011;40911;51.552;9.874;2023-08-31T13:21:43;3.88;;;1.77;;
13795;SDS011;40911;51.552;9.874;2023-08-31T13:24:07;2.00;;;1.75;;
13795;SDS011;40911;51.552;9.874;2023-08-31T13:29:09;3.42;;;1.67;;
13795;SDS011;40911;51.552;9.874;2023-08-31T13:31:31;2.60;;;1.88;;
13795;SDS011;40911;51.552;9.874;2023-08-31T13:33:54;3.15;;;1.67;;
13795;SDS011;40911;51.552;9.874;2023-08-31T13:38:37;2.63;;;1.85;;
13795;SDS011;40911;51.552;9.874;2023-08-31T13:41:07;2.92;;;1.73;;
13795;SDS011;40911;51.552;9.874;2023-08-31T13:43:29;4.05;;;1.98;;
13795;SDS011;40911;51.552;9.874;2023-08-31T13:48:13;2.08;;;1.60;;
13795;SDS011;40911;51.552;9.874;2023-08-31T13:50:35;3.58;;;1.70;;
13795;SDS011;40911;51.552;9.874;2023-08-31T13:52:57;3.60;;;1.80;;
13795;SDS011;40911;51.552;9.874;2023-08-31T13:55:19;3.00;;;1.77;;
13795;SDS011;40911;51.552;9.874;2023-08-31T13:57:43;3.30;;;1.67;;
13795;SDS011;40911;51.552;9.874;2023-08-31T14:00:06;1.90;;;1.70;;
13795;SDS011;40911;51.552;9.874;2023-08-31T14:02:30;3.50;;;1.83;;
13795;SDS011;40911;51.552;9.874;2023-08-31T14:04:53;1.67;;;1.50;;
13795;SDS011;40911;51.552;9.874;2023-08-31T14:07:16;4.63;;;1.75;;
13795;SDS011;40911;51.552;9.874;2023-08-31T14:09:38;3.30;;;1.50;;
13795;SDS011;40911;51.552;9.874;2023-08-31T14:14:26;1.92;;;1.50;;
13795;SDS011;40911;51.552;9.874;2023-08-31T14:16:48;2.75;;;1.77;;
13795;SDS011;40911;51.552;9.874;2023-08-31T14:19:16;2.97;;;1.55;;
13795;SDS011;40911;51.552;9.874;2023-08-31T14:21:40;5.03;;;1.70;;
13795;SDS011;40911;51.552;9.874;2023-08-31T14:24:02;3.15;;;1.67;;
13795;SDS011;40911;51.552;9.874;2023-08-31T14:26:25;3.97;;;1.90;;
13795;SDS011;40911;51.552;9.874;2023-08-31T14:28:47;3.28;;;1.55;;
13795;SDS011;40911;51.552;9.874;2023-08-31T14:31:10;3.90;;;1.90;;
13795;SDS011;40911;51.552;9.874;2023-08-31T14:33:32;2.92;;;1.60;;
13795;SDS011;40911;51.552;9.874;2023-08-31T14:35:54;2.75;;;1.42;;
13795;SDS011;40911;51.552;9.874;2023-08-31T14:38:17;1.88;;;1.50;;
13795;SDS011;40911;51.552;9.874;2023-08-31T14:40:51;3.97;;;1.60;;
13795;SDS011;40911;51.552;9.874;2023-08-31T14:50:50;3.65;;;1.35;;
13795;SDS011;40911;51.552;9.874;2023-08-31T14:53:11;3.10;;;1.50;;
13795;SDS011;40911;51.552;9.874;2023-08-31T14:58:25;3.25;;;1.65;;
13795;SDS011;40911;51.552;9.874;2023-08-31T15:00:46;3.22;;;1.33;;
13795;SDS011;40911;51.552;9.874;2023-08-31T15:03:08;3.83;;;1.30;;
13795;SDS011;40911;51.552;9.874;2023-08-31T15:05:31;3.05;;;1.45;;
13795;SDS011;40911;51.552;9.874;2023-08-31T15:07:54;3.22;;;1.50;;
13795;SDS011;40911;51.552;9.874;2023-08-31T15:10:16;2.75;;;1.20;;
13795;SDS011;40911;51.552;9.874;2023-08-31T15:12:38;2.53;;;1.48;;
13795;SDS011;40911;51.552;9.874;2023-08-31T15:15:07;3.38;;;1.40;;
13795;SDS011;40911;51.552;9.874;2023-08-31T15:17:42;2.15;;;1.27;;
13795;SDS011;40911;51.552;9.874;2023-08-31T15:20:07;2.42;;;1.20;;
13795;SDS011;40911;51.552;9.874;2023-08-31T15:22:31;1.75;;;1.20;;
13795;SDS011;40911;51.552;9.874;2023-08-31T15:24:55;1.58;;;1.10;;
13795;SDS011;40911;51.552;9.874;2023-08-31T15:27:19;4.28;;;1.33;;
13795;SDS011;40911;51.552;9.874;2023-08-31T15:29:50;2.88;;;1.40;;
13795;SDS011;40911;51.552;9.874;2023-08-31T15:32:11;1.30;;;1.17;;
13795;SDS011;40911;51.552;9.874;2023-08-31T15:54:09;2.38;;;1.73;;
13795;SDS011;40911;51.552;9.874;2023-08-31T16:02:50;1.48;;;1.00;;
13795;SDS011;40911;51.552;9.874;2023-08-31T16:08:15;1.65;;;1.17;;
13795;SDS011;40911;51.552;9.874;2023-08-31T16:10:37;3.70;;;1.60;;
13795;SDS011;40911;51.552;9.874;2023-08-31T16:12:59;2.08;;;1.17;;
13795;SDS011;40911;51.552;9.874;2023-08-31T16:18:17;1.60;;;1.50;;
13795;SDS011;40911;51.552;9.874;2023-08-31T16:20:39;3.08;;;1.23;;
13795;SDS011;40911;51.552;9.874;2023-08-31T16:23:01;1.70;;;1.23;;
13795;SDS011;40911;51.552;9.874;2023-08-31T16:31:28;2.42;;;1.40;;
13795;SDS011;40911;51.552;9.874;2023-08-31T16:33:51;2.75;;;1.35;;
13795;SDS011;40911;51.552;9.874;2023-08-31T16:39:27;2.47;;;1.60;;
13795;SDS011;40911;51.552;9.874;2023-08-31T16:47:09;2.03;;;1.75;;
13795;SDS011;40911;51.552;9.874;2023-08-31T16:49:33;2.50;;;1.58;;
13795;SDS011;40911;51.552;9.874;2023-08-31T16:52:01;1.70;;;1.60;;
13795;SDS011;40911;51.552;9.874;2023-08-31T16:54:31;1.58;;;1.48;;
13795;SDS011;40911;51.552;9.874;2023-08-31T17:00:37;2.42;;;1.50;;
13795;SDS011;40911;51.552;9.874;2023-08-31T17:02:59;3.53;;;1.58;;
13795;SDS011;40911;51.552;9.874;2023-08-31T17:15:00;2.83;;;1.83;;
13795;SDS011;40911;51.552;9.874;2023-08-31T17:17:23;1.90;;;1.77;;
13795;SDS011;40911;51.552;9.874;2023-08-31T17:22:38;3.45;;;1.65;;
13795;SDS011;40911;51.552;9.874;2023-08-31T17:27:45;2.10;;;1.90;;
13795;SDS011;40911;51.552;9.874;2023-08-31T17:42:19;2.13;;;1.92;;
13795;SDS011;40911;51.552;9.874;2023-08-31T18:07:17;4.85;;;2.45;;
13795;SDS011;40911;51.552;9.874;2023-08-31T18:09:39;3.38;;;2.55;;
13795;SDS011;40911;51.552;9.874;2023-08-31T18:14:23;4.38;;;3.35;;
13795;SDS011;40911;51.552;9.874;2023-08-31T18:16:45;5.47;;;2.72;;
13795;SDS011;40911;51.552;9.874;2023-08-31T18:21:38;4.90;;;3.42;;
13795;SDS011;40911;51.552;9.874;2023-08-31T18:24:01;3.45;;;2.85;;
13795;SDS011;40911;51.552;9.874;2023-08-31T18:32:24;4.22;;;3.88;;
13795;SDS011;40911;51.552;9.874;2023-08-31T18:37:41;3.72;;;3.38;;
13795;SDS011;40911;51.552;9.874;2023-08-31T18:40:25;4.45;;;3.47;;
13795;SDS011;40911;51.552;9.874;2023-08-31T18:42:47;3.60;;;3.30;;
13795;SDS011;40911;51.552;9.874;2023-08-31T18:50:37;2.83;;;2.55;;
13795;SDS011;40911;51.552;9.874;2023-08-31T18:53:05;3.40;;;3.10;;
13795;SDS011;40911;51.552;9.874;2023-08-31T18:58:10;4.93;;;2.88;;